sensor_id;sensor_type;location;lat;lon;timestamp;pressure;altitude;pressure_sealevel;temperature;humidity
44457;BME280;30159;49.316;8.558;2022-09-09T00:00:14;99926.09;;;16.65;100.00
44457;BME280;30159;49.316;8.558;2022-09-09T00:02:45;99963.47;;;16.86;100.00
44457;BME280;30159;49.316;8.558;2022-09-09T00:05:20;99953.81;;;16.89;100.00
44457;BME280;30159;49.316;8.558;2022-09-09T00:07:53;99969.03;;;16.90;100.00
44457;BME280;30159;49.316;8.558;2022-09-09T00:10:26;99963.06;;;16.96;100.00
44457;BME280;30159;49.316;8.558;2022-09-09T00:12:57;99943.44;;;17.03;100.00
44457;BME280;30159;49.316;8.558;2022-09-09T00:15:34;99949.41;;;17.17;100.00
44457;BME280;30159;49.316;8.558;2022-09-09T00:18:10;99913.06;;;16.92;100.00
44457;BME280;30159;49.316;8.558;2022-09-09T00:20:44;99945.59;;;17.31;100.00
44457;BME280;30159;49.316;8.558;2022-09-09T00:23:15;99950.50;;;17.37;100.00
44457;BME280;30159;49.316;8.558;2022-09-09T00:25:50;99941.31;;;17.30;100.00
44457;BME280;30159;49.316;8.558;2022-09-09T00:28:22;99869.69;;;16.87;100.00
44457;BME280;30159;49.316;8.558;2022-09-09T00:30:50;99948.72;;;17.41;100.00
44457;BME280;30159;49.316;8.558;2022-09-09T00:33:20;99925.28;;;17.28;100.00
44457;BME280;30159;49.316;8.558;2022-09-09T00:35:50;99720.56;;;15.96;100.00
44457;BME280;30159;49.316;8.558;2022-09-09T00:38:20;99941.19;;;17.38;100.00
44457;BME280;30159;49.316;8.558;2022-09-09T00:40:52;99941.16;;;17.26;100.00
44457;BME280;30159;49.316;8.558;2022-09-09T00:43:28;99943.22;;;17.29;100.00
44457;BME280;30159;49.316;8.558;2022-09-09T00:48:59;99949.75;;;17.16;100.00
44457;BME280;30159;49.316;8.558;2022-09-09T00:51:38;99948.41;;;17.22;100.00
44457;BME280;30159;49.316;8.558;2022-09-09T00:54:25;99952.28;;;17.21;100.00
44457;BME280;30159;49.316;8.558;2022-09-09T00:57:10;99953.59;;;17.15;100.00
44457;BME280;30159;49.316;8.558;2022-09-09T00:59:46;99964.41;;;17.11;100.00
44457;BME280;30159;49.316;8.558;2022-09-09T01:02:22;99964.41;;;17.11;100.00
44457;BME280;30159;49.316;8.558;2022-09-09T01:04:51;99959.38;;;17.13;100.00
44457;BME280;30159;49.316;8.558;2022-09-09T01:07:18;99961.56;;;17.20;100.00
44457;BME280;30159;49.316;8.558;2022-09-09T01:09:52;99962.50;;;17.24;100.00
44457;BME280;30159;49.316;8.558;2022-09-09T01:12:26;99942.97;;;17.22;100.00
44457;BME280;30159;49.316;8.558;2022-09-09T01:15:00;99955.81;;;17.34;100.00
44457;BME280;30159;49.316;8.558;2022-09-09T01:17:32;99961.16;;;17.30;100.00
44457;BME280;30159;49.316;8.558;2022-09-09T01:20:08;99962.75;;;17.31;100.00
44457;BME280;30159;49.316;8.558;2022-09-09T01:22:45;99960.63;;;17.37;100.00
44457;BME280;30159;49.316;8.558;2022-09-09T01:25:28;99954.81;;;17.38;100.00
44457;BME280;30159;49.316;8.558;2022-09-09T01:27:59;99940.53;;;17.41;100.00
44457;BME280;30159;49.316;8.558;2022-09-09T01:30:27;99942.13;;;17.42;100.00
44457;BME280;30159;49.316;8.558;2022-09-09T01:32:56;99956.47;;;17.52;100.00
44457;BME280;30159;49.316;8.558;2022-09-09T01:35:38;99954.53;;;17.64;100.00
44457;BME280;30159;49.316;8.558;2022-09-09T01:38:06;99954.91;;;17.63;100.00
44457;BME280;30159;49.316;8.558;2022-09-09T01:40:33;99962.28;;;17.62;100.00
44457;BME280;30159;49.316;8.558;2022-09-09T01:43:01;99957.63;;;17.63;100.00
44457;BME280;30159;49.316;8.558;2022-09-09T01:45:28;99886.16;;;17.12;100.00
44457;BME280;30159;49.316;8.558;2022-09-09T01:47:55;99958.28;;;17.60;100.00
44457;BME280;30159;49.316;8.558;2022-09-09T01:50:22;99960.81;;;17.65;100.00
44457;BME280;30159;49.316;8.558;2022-09-09T01:52:52;99962.88;;;17.68;100.00
44457;BME280;30159;49.316;8.558;2022-09-09T01:55:23;99962.06;;;17.67;100.00
44457;BME280;30159;49.316;8.558;2022-09-09T01:58:10;99960.81;;;17.65;100.00
44457;BME280;30159;49.316;8.558;2022-09-09T02:00:44;99961.47;;;17.62;100.00
44457;BME280;30159;49.316;8.558;2022-09-09T02:03:20;99940.09;;;17.52;100.00
44457;BME280;30159;49.316;8.558;2022-09-09T02:05:56;99953.50;;;17.57;100.00
44457;BME280;30159;49.316;8.558;2022-09-09T02:08:30;99954.44;;;17.61;100.00
44457;BME280;30159;49.316;8.558;2022-09-09T02:11:01;99952.50;;;17.61;100.00
44457;BME280;30159;49.316;8.558;2022-09-09T02:13:35;99951.81;;;17.64;100.00
44457;BME280;30159;49.316;8.558;2022-09-09T02:16:07;99953.75;;;17.64;100.00
44457;BME280;30159;49.316;8.558;2022-09-09T02:18:37;99955.56;;;17.60;100.00
44457;BME280;30159;49.316;8.558;2022-09-09T02:21:07;99955.56;;;17.60;100.00
44457;BME280;30159;49.316;8.558;2022-09-09T02:23:34;99910.78;;;17.15;100.00
44457;BME280;30159;49.316;8.558;2022-09-09T02:26:02;99959.66;;;17.54;100.00
44457;BME280;30159;49.316;8.558;2022-09-09T02:28:32;99964.31;;;17.53;100.00
44457;BME280;30159;49.316;8.558;2022-09-09T02:31:01;99966.13;;;17.49;100.00
44457;BME280;30159;49.316;8.558;2022-09-09T02:33:30;99968.94;;;17.53;100.00
44457;BME280;30159;49.316;8.558;2022-09-09T02:36:01;99934.69;;;17.31;100.00
44457;BME280;30159;49.316;8.558;2022-09-09T02:38:36;99969.16;;;17.47;100.00
44457;BME280;30159;49.316;8.558;2022-09-09T02:41:05;99962.59;;;17.48;100.00
44457;BME280;30159;49.316;8.558;2022-09-09T02:43:34;99966.59;;;17.51;100.00
44457;BME280;30159;49.316;8.558;2022-09-09T02:46:04;99954.81;;;17.38;100.00
44457;BME280;30159;49.316;8.558;2022-09-09T02:48:42;99967.22;;;17.48;100.00
44457;BME280;30159;49.316;8.558;2022-09-09T02:51:16;99966.88;;;17.37;100.00
44457;BME280;30159;49.316;8.558;2022-09-09T02:53:47;99952.06;;;17.26;100.00
44457;BME280;30159;49.316;8.558;2022-09-09T02:56:18;99942.31;;;17.25;100.00
44457;BME280;30159;49.316;8.558;2022-09-09T02:58:47;99940.44;;;17.17;100.00
44457;BME280;30159;49.316;8.558;2022-09-09T03:01:14;99939.50;;;17.13;100.00
44457;BME280;30159;49.316;8.558;2022-09-09T03:03:42;99946.56;;;17.14;100.00
44457;BME280;30159;49.316;8.558;2022-09-09T03:06:10;99944.06;;;17.09;100.00
44457;BME280;30159;49.316;8.558;2022-09-09T03:08:37;99942.03;;;16.97;100.00
44457;BME280;30159;49.316;8.558;2022-09-09T03:11:03;99941.94;;;16.93;100.00
44457;BME280;30159;49.316;8.558;2022-09-09T03:13:30;99942.59;;;16.90;100.00
44457;BME280;30159;49.316;8.558;2022-09-09T03:15:58;99932.50;;;16.91;100.00
44457;BME280;30159;49.316;8.558;2022-09-09T03:18:25;99934.44;;;16.90;100.00
44457;BME280;30159;49.316;8.558;2022-09-09T03:20:53;99927.06;;;16.91;100.00
44457;BME280;30159;49.316;8.558;2022-09-09T03:23:20;99939.41;;;16.88;100.00
44457;BME280;30159;49.316;8.558;2022-09-09T03:25:48;99946.19;;;16.82;100.00
44457;BME280;30159;49.316;8.558;2022-09-09T03:28:15;99896.88;;;16.54;100.00
44457;BME280;30159;49.316;8.558;2022-09-09T03:30:41;99942.00;;;16.84;100.00
44457;BME280;30159;49.316;8.558;2022-09-09T03:33:09;99940.06;;;16.85;100.00
44457;BME280;30159;49.316;8.558;2022-09-09T03:35:37;99944.44;;;16.77;100.00
44457;BME280;30159;49.316;8.558;2022-09-09T03:38:04;99945.16;;;16.65;100.00
44457;BME280;30159;49.316;8.558;2022-09-09T03:40:31;99941.63;;;16.65;100.00
44457;BME280;30159;49.316;8.558;2022-09-09T03:42:57;99944.16;;;16.70;100.00
44457;BME280;30159;49.316;8.558;2022-09-09T03:45:24;99818.63;;;16.00;100.00
44457;BME280;30159;49.316;8.558;2022-09-09T03:47:51;99949.63;;;16.91;100.00
44457;BME280;30159;49.316;8.558;2022-09-09T03:50:19;99944.88;;;16.88;100.00
44457;BME280;30159;49.316;8.558;2022-09-09T03:52:45;99945.97;;;16.87;100.00
44457;BME280;30159;49.316;8.558;2022-09-09T03:55:12;99947.50;;;16.97;100.00
44457;BME280;30159;49.316;8.558;2022-09-09T03:57:42;99946.97;;;17.03;100.00
44457;BME280;30159;49.316;8.558;2022-09-09T04:00:09;99923.97;;;16.92;100.00
44457;BME280;30159;49.316;8.558;2022-09-09T04:02:36;99948.22;;;17.06;100.00
44457;BME280;30159;49.316;8.558;2022-09-09T04:05:03;99948.47;;;17.13;100.00
44457;BME280;30159;49.316;8.558;2022-09-09T04:07:31;99943.03;;;17.13;100.00
44457;BME280;30159;49.316;8.558;2022-09-09T04:09:57;99947.47;;;17.18;100.00
44457;BME280;30159;49.316;8.558;2022-09-09T04:12:24;99948.53;;;17.25;100.00
44457;BME280;30159;49.316;8.558;2022-09-09T04:17:21;99933.84;;;17.18;100.00
44457;BME280;30159;49.316;8.558;2022-09-09T04:19:48;99961.81;;;17.27;100.00
44457;BME280;30159;49.316;8.558;2022-09-09T04:22:14;99959.69;;;17.33;100.00
44457;BME280;30159;49.316;8.558;2022-09-09T04:24:42;99953.00;;;17.30;100.00
44457;BME280;30159;49.316;8.558;2022-09-09T04:27:09;99957.06;;;17.24;100.00
44457;BME280;30159;49.316;8.558;2022-09-09T04:29:35;99962.50;;;17.24;100.00
44457;BME280;30159;49.316;8.558;2022-09-09T04:32:02;99963.97;;;17.21;100.00
44457;BME280;30159;49.316;8.558;2022-09-09T04:34:28;99958.66;;;17.25;100.00
44457;BME280;30159;49.316;8.558;2022-09-09T04:36:56;99964.75;;;17.22;100.00
44457;BME280;30159;49.316;8.558;2022-09-09T04:39:22;99969.75;;;17.20;100.00
44457;BME280;30159;49.316;8.558;2022-09-09T04:41:50;99971.22;;;17.17;100.00
44457;BME280;30159;49.316;8.558;2022-09-09T04:44:16;99973.81;;;17.14;100.00
44457;BME280;30159;49.316;8.558;2022-09-09T04:46:43;99978.34;;;17.10;100.00
44457;BME280;30159;49.316;8.558;2022-09-09T04:49:10;99978.59;;;17.17;100.00
44457;BME280;30159;49.316;8.558;2022-09-09T04:51:36;99982.78;;;17.14;100.00
44457;BME280;30159;49.316;8.558;2022-09-09T04:54:04;99984.72;;;17.14;100.00
44457;BME280;30159;49.316;8.558;2022-09-09T04:56:31;99970.63;;;17.12;100.00
44457;BME280;30159;49.316;8.558;2022-09-09T04:58:59;99980.84;;;17.15;100.00
44457;BME280;30159;49.316;8.558;2022-09-09T05:01:27;99977.03;;;17.16;100.00
44457;BME280;30159;49.316;8.558;2022-09-09T05:03:54;99981.13;;;17.22;100.00
44457;BME280;30159;49.316;8.558;2022-09-09T05:06:21;99983.50;;;17.23;100.00
44457;BME280;30159;49.316;8.558;2022-09-09T05:08:49;99979.53;;;17.21;100.00
44457;BME280;30159;49.316;8.558;2022-09-09T05:11:16;99993.75;;;17.26;100.00
44457;BME280;30159;49.316;8.558;2022-09-09T05:13:44;99971.09;;;17.14;100.00
44457;BME280;30159;49.316;8.558;2022-09-09T05:16:12;99997.88;;;17.33;100.00
44457;BME280;30159;49.316;8.558;2022-09-09T05:18:39;99986.34;;;17.27;100.00
44457;BME280;30159;49.316;8.558;2022-09-09T05:21:07;99991.91;;;17.18;100.00
44457;BME280;30159;49.316;8.558;2022-09-09T05:23:34;99986.56;;;17.22;100.00
44457;BME280;30159;49.316;8.558;2022-09-09T05:26:01;100004.91;;;17.34;100.00
44457;BME280;30159;49.316;8.558;2022-09-09T05:28:28;100001.31;;;17.42;100.00
44457;BME280;30159;49.316;8.558;2022-09-09T05:30:59;100006.81;;;17.54;100.00
44457;BME280;30159;49.316;8.558;2022-09-09T05:33:31;100002.75;;;17.60;100.00
44457;BME280;30159;49.316;8.558;2022-09-09T05:35:59;100007.03;;;17.82;100.00
44457;BME280;30159;49.316;8.558;2022-09-09T05:38:26;100023.19;;;17.87;100.00
44457;BME280;30159;49.316;8.558;2022-09-09T05:40:53;100019.44;;;17.92;100.00
44457;BME280;30159;49.316;8.558;2022-09-09T05:43:20;100006.72;;;17.96;100.00
44457;BME280;30159;49.316;8.558;2022-09-09T05:45:47;99877.50;;;17.10;100.00
44457;BME280;30159;49.316;8.558;2022-09-09T05:48:13;100013.09;;;18.00;100.00
44457;BME280;30159;49.316;8.558;2022-09-09T05:50:43;100009.00;;;18.06;100.00
44457;BME280;30159;49.316;8.558;2022-09-09T05:53:10;100019.03;;;18.15;100.00
44457;BME280;30159;49.316;8.558;2022-09-09T05:55:37;100023.69;;;18.14;100.00
44457;BME280;30159;49.316;8.558;2022-09-09T05:58:03;100028.28;;;18.35;100.00
44457;BME280;30159;49.316;8.558;2022-09-09T06:00:30;100023.94;;;18.33;100.00
44457;BME280;30159;49.316;8.558;2022-09-09T06:02:57;100015.28;;;18.31;100.00
44457;BME280;30159;49.316;8.558;2022-09-09T06:05:23;100011.53;;;18.24;100.00
44457;BME280;30159;49.316;8.558;2022-09-09T06:07:54;100020.06;;;18.47;100.00
44457;BME280;30159;49.316;8.558;2022-09-09T06:10:21;100026.44;;;18.51;100.00
44457;BME280;30159;49.316;8.558;2022-09-09T06:12:47;100034.19;;;18.61;100.00
44457;BME280;30159;49.316;8.558;2022-09-09T06:15:14;100020.94;;;18.75;100.00
44457;BME280;30159;49.316;8.558;2022-09-09T06:17:40;100026.00;;;19.54;98.57
44457;BME280;30159;49.316;8.558;2022-09-09T06:20:08;100029.81;;;20.41;95.28
44457;BME280;30159;49.316;8.558;2022-09-09T06:22:35;100017.41;;;22.19;87.26
44457;BME280;30159;49.316;8.558;2022-09-09T06:25:03;100026.84;;;23.28;79.16
44457;BME280;30159;49.316;8.558;2022-09-09T06:27:30;100024.81;;;22.91;78.33
44457;BME280;30159;49.316;8.558;2022-09-09T06:29:57;100006.03;;;21.75;82.37
44457;BME280;30159;49.316;8.558;2022-09-09T06:32:23;100023.22;;;21.13;87.39
44457;BME280;30159;49.316;8.558;2022-09-09T06:34:50;100025.72;;;21.02;88.97
44457;BME280;30159;49.316;8.558;2022-09-09T06:37:16;100028.41;;;20.99;88.08
44457;BME280;30159;49.316;8.558;2022-09-09T06:39:43;100031.78;;;20.92;89.75
44457;BME280;30159;49.316;8.558;2022-09-09T06:42:11;100020.41;;;20.74;89.47
44457;BME280;30159;49.316;8.558;2022-09-09T06:44:37;100022.19;;;20.82;88.95
44457;BME280;30159;49.316;8.558;2022-09-09T06:47:04;100020.63;;;21.01;86.43
44457;BME280;30159;49.316;8.558;2022-09-09T06:49:30;100020.69;;;20.69;87.69
44457;BME280;30159;49.316;8.558;2022-09-09T06:51:57;100020.53;;;20.46;89.91
44457;BME280;30159;49.316;8.558;2022-09-09T06:54:24;100024.97;;;20.19;89.54
44457;BME280;30159;49.316;8.558;2022-09-09T06:56:51;100029.81;;;19.94;91.24
44457;BME280;30159;49.316;8.558;2022-09-09T06:59:18;100025.88;;;20.07;92.83
44457;BME280;30159;49.316;8.558;2022-09-09T07:01:45;100031.03;;;19.81;93.33
44457;BME280;30159;49.316;8.558;2022-09-09T07:04:12;100035.56;;;20.05;93.03
44457;BME280;30159;49.316;8.558;2022-09-09T07:06:40;100046.94;;;19.91;92.68
44457;BME280;30159;49.316;8.558;2022-09-09T07:09:10;100038.63;;;20.51;91.51
44457;BME280;30159;49.316;8.558;2022-09-09T07:11:39;100039.59;;;22.83;80.82
44457;BME280;30159;49.316;8.558;2022-09-09T07:14:07;100038.53;;;23.86;73.93
44457;BME280;30159;49.316;8.558;2022-09-09T07:16:35;100045.50;;;25.24;69.73
44457;BME280;30159;49.316;8.558;2022-09-09T07:19:03;100044.94;;;26.02;66.10
44457;BME280;30159;49.316;8.558;2022-09-09T07:21:31;100039.22;;;27.39;62.07
44457;BME280;30159;49.316;8.558;2022-09-09T07:23:58;100012.06;;;26.98;63.94
44457;BME280;30159;49.316;8.558;2022-09-09T07:26:26;100024.28;;;25.50;66.26
44457;BME280;30159;49.316;8.558;2022-09-09T07:28:54;100041.38;;;23.59;71.98
44457;BME280;30159;49.316;8.558;2022-09-09T07:31:23;99999.34;;;23.28;73.96
44457;BME280;30159;49.316;8.558;2022-09-09T07:33:52;100027.00;;;24.66;70.92
44457;BME280;30159;49.316;8.558;2022-09-09T07:36:20;100015.50;;;25.19;68.51
44457;BME280;30159;49.316;8.558;2022-09-09T07:38:49;100029.44;;;24.74;69.38
44457;BME280;30159;49.316;8.558;2022-09-09T07:41:18;99976.94;;;23.30;72.15
44457;BME280;30159;49.316;8.558;2022-09-09T07:43:47;100038.81;;;23.09;75.98
44457;BME280;30159;49.316;8.558;2022-09-09T07:46:15;100034.59;;;23.19;74.52
44457;BME280;30159;49.316;8.558;2022-09-09T07:48:44;100035.59;;;23.04;76.10
44457;BME280;30159;49.316;8.558;2022-09-09T07:51:13;100034.53;;;22.85;76.15
44457;BME280;30159;49.316;8.558;2022-09-09T07:53:44;100038.56;;;22.91;76.79
44457;BME280;30159;49.316;8.558;2022-09-09T07:56:13;100045.00;;;23.33;75.86
44457;BME280;30159;49.316;8.558;2022-09-09T07:58:44;100002.94;;;23.32;73.20
44457;BME280;30159;49.316;8.558;2022-09-09T08:01:13;100030.78;;;23.61;72.86
44457;BME280;30159;49.316;8.558;2022-09-09T08:03:40;100011.16;;;22.99;75.13
44457;BME280;30159;49.316;8.558;2022-09-09T08:06:08;100046.03;;;23.21;73.74
44457;BME280;30159;49.316;8.558;2022-09-09T08:08:36;100045.16;;;23.13;73.89
44457;BME280;30159;49.316;8.558;2022-09-09T08:11:06;100044.78;;;22.88;74.01
44457;BME280;30159;49.316;8.558;2022-09-09T08:13:35;100051.31;;;22.27;76.78
44457;BME280;30159;49.316;8.558;2022-09-09T08:16:09;100045.16;;;22.34;77.51
44457;BME280;30159;49.316;8.558;2022-09-09T08:18:36;100048.28;;;22.13;78.42
44457;BME280;30159;49.316;8.558;2022-09-09T08:21:08;100050.63;;;22.57;78.05
44457;BME280;30159;49.316;8.558;2022-09-09T08:23:38;100046.38;;;22.89;75.57
44457;BME280;30159;49.316;8.558;2022-09-09T08:26:09;100056.41;;;23.01;75.41
44457;BME280;30159;49.316;8.558;2022-09-09T08:28:36;100045.91;;;23.10;76.85
44457;BME280;30159;49.316;8.558;2022-09-09T08:31:07;100066.97;;;22.99;82.15
44457;BME280;30159;49.316;8.558;2022-09-09T08:33:34;100062.53;;;22.68;84.34
44457;BME280;30159;49.316;8.558;2022-09-09T08:36:02;100056.00;;;22.49;87.33
44457;BME280;30159;49.316;8.558;2022-09-09T08:38:29;100061.66;;;22.14;85.94
44457;BME280;30159;49.316;8.558;2022-09-09T08:41:03;100075.44;;;21.95;86.84
44457;BME280;30159;49.316;8.558;2022-09-09T08:43:33;100071.63;;;21.60;86.08
44457;BME280;30159;49.316;8.558;2022-09-09T08:46:04;100074.47;;;21.09;90.62
44457;BME280;30159;49.316;8.558;2022-09-09T08:48:52;100071.03;;;21.32;92.22
44457;BME280;30159;49.316;8.558;2022-09-09T08:51:21;100084.25;;;21.26;90.50
44457;BME280;30159;49.316;8.558;2022-09-09T08:53:49;100066.41;;;21.36;88.84
44457;BME280;30159;49.316;8.558;2022-09-09T08:56:22;100068.72;;;21.34;88.28
44457;BME280;30159;49.316;8.558;2022-09-09T08:58:51;100073.97;;;21.23;89.00
44457;BME280;30159;49.316;8.558;2022-09-09T09:01:40;100071.53;;;21.18;88.36
44457;BME280;30159;49.316;8.558;2022-09-09T09:04:22;100070.13;;;21.43;87.72
44457;BME280;30159;49.316;8.558;2022-09-09T09:07:00;100078.72;;;21.42;85.50
44457;BME280;30159;49.316;8.558;2022-09-09T09:09:36;100073.69;;;21.28;85.75
44457;BME280;30159;49.316;8.558;2022-09-09T09:12:15;100069.53;;;20.99;87.64
44457;BME280;30159;49.316;8.558;2022-09-09T09:14:43;100065.78;;;21.07;87.20
44457;BME280;30159;49.316;8.558;2022-09-09T09:17:13;100066.63;;;21.27;86.93
44457;BME280;30159;49.316;8.558;2022-09-09T09:19:42;100069.47;;;21.50;86.88
44457;BME280;30159;49.316;8.558;2022-09-09T09:22:16;100075.25;;;21.45;86.60
44457;BME280;30159;49.316;8.558;2022-09-09T09:24:50;100070.25;;;21.70;88.28
44457;BME280;30159;49.316;8.558;2022-09-09T09:27:25;100069.28;;;22.01;85.34
44457;BME280;30159;49.316;8.558;2022-09-09T09:29:58;100061.13;;;22.28;83.40
44457;BME280;30159;49.316;8.558;2022-09-09T09:32:28;100023.47;;;22.28;82.66
44457;BME280;30159;49.316;8.558;2022-09-09T09:34:58;100060.47;;;22.35;81.45
44457;BME280;30159;49.316;8.558;2022-09-09T09:37:28;100022.22;;;22.03;81.60
44457;BME280;30159;49.316;8.558;2022-09-09T09:39:55;100049.09;;;22.13;81.38
44457;BME280;30159;49.316;8.558;2022-09-09T09:42:23;100055.38;;;22.14;81.58
44457;BME280;30159;49.316;8.558;2022-09-09T09:44:51;100033.03;;;21.92;81.33
44457;BME280;30159;49.316;8.558;2022-09-09T09:47:19;100057.44;;;21.97;81.22
44457;BME280;30159;49.316;8.558;2022-09-09T09:49:53;100060.19;;;21.97;88.21
44457;BME280;30159;49.316;8.558;2022-09-09T09:52:23;100067.38;;;21.82;89.01
44457;BME280;30159;49.316;8.558;2022-09-09T09:54:50;100062.06;;;21.93;91.01
44457;BME280;30159;49.316;8.558;2022-09-09T09:57:18;100049.09;;;22.13;90.38
44457;BME280;30159;49.316;8.558;2022-09-09T09:59:46;100055.59;;;22.24;90.02
44457;BME280;30159;49.316;8.558;2022-09-09T10:02:16;100046.56;;;22.04;84.48
44457;BME280;30159;49.316;8.558;2022-09-09T10:04:43;100065.00;;;22.73;84.96
44457;BME280;30159;49.316;8.558;2022-09-09T10:07:11;100083.34;;;22.92;81.47
44457;BME280;30159;49.316;8.558;2022-09-09T10:09:38;100087.44;;;23.02;81.77
44457;BME280;30159;49.316;8.558;2022-09-09T10:12:12;100079.84;;;22.68;80.09
44457;BME280;30159;49.316;8.558;2022-09-09T10:14:51;99952.78;;;21.56;81.16
44457;BME280;30159;49.316;8.558;2022-09-09T10:17:26;100080.19;;;21.98;82.88
44457;BME280;30159;49.316;8.558;2022-09-09T10:20:12;100065.06;;;21.84;82.73
44457;BME280;30159;49.316;8.558;2022-09-09T10:22:47;100060.56;;;21.76;82.48
44457;BME280;30159;49.316;8.558;2022-09-09T10:25:30;100067.69;;;22.00;83.19
44457;BME280;30159;49.316;8.558;2022-09-09T10:28:15;100071.84;;;22.14;82.38
44457;BME280;30159;49.316;8.558;2022-09-09T10:30:52;100064.13;;;22.19;76.59
44457;BME280;30159;49.316;8.558;2022-09-09T10:33:30;100056.34;;;22.02;77.45
44457;BME280;30159;49.316;8.558;2022-09-09T10:36:04;100058.16;;;21.94;78.11
44457;BME280;30159;49.316;8.558;2022-09-09T10:38:39;100029.72;;;21.83;77.51
44457;BME280;30159;49.316;8.558;2022-09-09T10:41:16;100054.16;;;22.11;77.30
44457;BME280;30159;49.316;8.558;2022-09-09T10:44:06;100043.22;;;22.15;76.01
44457;BME280;30159;49.316;8.558;2022-09-09T10:49:47;100022.91;;;21.96;77.33
44457;BME280;30159;49.316;8.558;2022-09-09T10:52:23;100019.72;;;21.94;76.06
44457;BME280;30159;49.316;8.558;2022-09-09T10:54:57;100031.50;;;21.95;77.69
44457;BME280;30159;49.316;8.558;2022-09-09T10:57:28;100039.59;;;21.87;75.93
44457;BME280;30159;49.316;8.558;2022-09-09T10:59:59;100028.88;;;21.59;78.22
44457;BME280;30159;49.316;8.558;2022-09-09T11:02:32;100039.69;;;21.72;78.52
44457;BME280;30159;49.316;8.558;2022-09-09T11:05:03;100023.22;;;21.72;78.57
44457;BME280;30159;49.316;8.558;2022-09-09T11:07:34;100042.41;;;21.91;77.64
44457;BME280;30159;49.316;8.558;2022-09-09T11:10:07;100042.47;;;21.95;77.28
44457;BME280;30159;49.316;8.558;2022-09-09T11:12:43;100042.28;;;21.84;78.68
44457;BME280;30159;49.316;8.558;2022-09-09T11:15:17;100032.91;;;21.85;78.70
44457;BME280;30159;49.316;8.558;2022-09-09T11:17:50;100031.38;;;21.87;78.96
44457;BME280;30159;49.316;8.558;2022-09-09T11:20:17;100030.28;;;21.92;79.41
44457;BME280;30159;49.316;8.558;2022-09-09T11:22:47;100033.06;;;22.19;77.30
44457;BME280;30159;49.316;8.558;2022-09-09T11:25:16;100030.56;;;22.56;72.93
44457;BME280;30159;49.316;8.558;2022-09-09T11:27:56;100024.28;;;22.82;71.63
44457;BME280;30159;49.316;8.558;2022-09-09T11:30:34;100012.63;;;22.92;72.67
44457;BME280;30159;49.316;8.558;2022-09-09T11:39:35;99957.88;;;22.54;71.10
44457;BME280;30159;49.316;8.558;2022-09-09T11:42:07;99967.94;;;22.72;71.86
44457;BME280;30159;49.316;8.558;2022-09-09T11:44:34;100012.41;;;23.05;70.86
44457;BME280;30159;49.316;8.558;2022-09-09T11:47:00;100003.44;;;23.08;71.16
44457;BME280;30159;49.316;8.558;2022-09-09T11:49:39;99955.31;;;22.68;68.82
44457;BME280;30159;49.316;8.558;2022-09-09T11:52:11;100010.50;;;23.09;70.00
44457;BME280;30159;49.316;8.558;2022-09-09T11:54:46;99957.63;;;22.92;69.37
44457;BME280;30159;49.316;8.558;2022-09-09T11:57:24;99999.25;;;23.21;68.46
44457;BME280;30159;49.316;8.558;2022-09-09T11:59:52;99998.09;;;23.22;69.85
44457;BME280;30159;49.316;8.558;2022-09-09T12:02:23;100002.75;;;23.18;70.50
44457;BME280;30159;49.316;8.558;2022-09-09T12:04:58;100004.25;;;23.12;69.49
44457;BME280;30159;49.316;8.558;2022-09-09T12:07:31;99997.84;;;23.01;69.86
44457;BME280;30159;49.316;8.558;2022-09-09T12:10:02;99993.81;;;22.98;70.44
44457;BME280;30159;49.316;8.558;2022-09-09T12:12:31;99960.97;;;22.79;68.31
44457;BME280;30159;49.316;8.558;2022-09-09T12:15:01;100003.44;;;23.08;68.97
44457;BME280;30159;49.316;8.558;2022-09-09T12:17:30;100020.03;;;23.15;71.23
44457;BME280;30159;49.316;8.558;2022-09-09T12:20:06;100014.44;;;23.08;73.51
44457;BME280;30159;49.316;8.558;2022-09-09T12:22:40;100014.94;;;23.17;72.32
44457;BME280;30159;49.316;8.558;2022-09-09T12:25:18;99883.91;;;22.41;72.57
44457;BME280;30159;49.316;8.558;2022-09-09T12:27:58;100013.91;;;23.29;73.53
44457;BME280;30159;49.316;8.558;2022-09-09T12:30:30;100007.88;;;22.89;76.61
44457;BME280;30159;49.316;8.558;2022-09-09T12:33:06;100016.56;;;22.65;79.15
44457;BME280;30159;49.316;8.558;2022-09-09T12:35:37;100009.88;;;22.39;78.86
44457;BME280;30159;49.316;8.558;2022-09-09T12:38:05;100008.19;;;22.58;76.95
44457;BME280;30159;49.316;8.558;2022-09-09T12:40:36;100000.41;;;22.63;76.13
44457;BME280;30159;49.316;8.558;2022-09-09T12:43:17;99996.19;;;22.96;74.80
44457;BME280;30159;49.316;8.558;2022-09-09T12:45:44;99998.53;;;23.24;72.62
44457;BME280;30159;49.316;8.558;2022-09-09T12:48:11;100004.13;;;23.01;73.05
44457;BME280;30159;49.316;8.558;2022-09-09T12:50:45;99994.94;;;23.20;72.57
44457;BME280;30159;49.316;8.558;2022-09-09T12:53:21;100006.47;;;22.99;72.99
44457;BME280;30159;49.316;8.558;2022-09-09T12:55:50;99938.06;;;22.41;74.34
44457;BME280;30159;49.316;8.558;2022-09-09T12:58:19;100016.22;;;22.70;75.92
44457;BME280;30159;49.316;8.558;2022-09-09T13:00:49;100012.59;;;22.62;76.80
44457;BME280;30159;49.316;8.558;2022-09-09T13:03:19;100013.59;;;22.50;75.46
44457;BME280;30159;49.316;8.558;2022-09-09T13:05:49;100004.94;;;22.48;76.85
44457;BME280;30159;49.316;8.558;2022-09-09T13:08:17;99969.34;;;22.09;74.85
44457;BME280;30159;49.316;8.558;2022-09-09T13:10:48;99998.16;;;22.19;74.05
44457;BME280;30159;49.316;8.558;2022-09-09T13:13:22;100009.34;;;22.30;72.90
44457;BME280;30159;49.316;8.558;2022-09-09T13:15:51;100021.66;;;22.17;75.42
44457;BME280;30159;49.316;8.558;2022-09-09T13:18:21;100034.25;;;21.95;82.26
44457;BME280;30159;49.316;8.558;2022-09-09T13:20:50;100058.56;;;20.99;85.68